Time;durP1;ratioP1;P1;durP2;ratioP2;P2;SDS_P1;SDS_P2;PMS_P1;PMS_P2;Temp;Humidity;BMP_temperature;BMP_pressure;BME280_temperature;BME280_humidity;BME280_pressure;Samples;Min_cycle;Max_cycle;Signal;HPM_P1;HPM_P2
2022/12/11 15:03:16;;;;;;;44.33;18.98;;;1.60;86.40;;;;;;5153039;27;20129;-60
2022/12/11 15:05:54;;;;;;;42.22;16.27;;;1.50;86.80;;;;;;5152936;27;20031;-60
2022/12/11 15:08:29;;;;;;;48.08;21.45;;;1.50;86.70;;;;;;5153231;27;20098;-60
2022/12/11 15:11:10;;;;;;;38.28;17.85;;;1.70;86.50;;;;;;5152458;27;20406;-57
2022/12/11 15:13:58;;;;;;;59.05;19.77;;;1.70;86.20;;;;;;5133148;27;20039;-60
2022/12/11 15:16:27;;;;;;;50.88;18.98;;;1.70;86.00;;;;;;5151886;27;20031;-58
2022/12/11 15:18:54;;;;;;;39.15;16.95;;;1.80;85.60;;;;;;5152209;27;20057;-59
2022/12/11 15:21:32;;;;;;;39.13;19.35;;;1.80;85.70;;;;;;5134037;27;20027;-58
2022/12/11 15:24:01;;;;;;;47.10;18.63;;;2.00;85.60;;;;;;5152317;27;20030;-57
2022/12/11 15:26:42;;;;;;;45.38;18.73;;;2.10;85.00;;;;;;5151978;27;20414;-61
2022/12/11 15:29:33;;;;;;;40.22;18.13;;;2.00;84.50;;;;;;5152508;27;20035;-58
2022/12/11 15:32:12;;;;;;;40.33;19.05;;;1.90;84.40;;;;;;5153016;27;20019;-58
2022/12/11 15:34:49;;;;;;;36.83;17.27;;;1.90;84.90;;;;;;5133108;27;20035;-58
2022/12/11 15:37:27;;;;;;;42.25;18.50;;;2.00;85.10;;;;;;5152045;27;20039;-62
2022/12/11 15:39:54;;;;;;;47.53;18.27;;;2.00;84.70;;;;;;5133288;27;20019;-58
2022/12/11 15:42:30;;;;;;;38.97;17.00;;;1.90;84.80;;;;;;5152084;27;20025;-58
2022/12/11 15:44:57;;;;;;;42.08;18.95;;;2.10;84.50;;;;;;5151834;27;20050;-57
2022/12/11 15:47:26;;;;;;;41.28;17.25;;;2.00;84.20;;;;;;5133023;27;20420;-61
2022/12/11 15:50:10;;;;;;;41.40;18.63;;;2.00;84.20;;;;;;5151613;27;20019;-59
2022/12/11 15:52:36;;;;;;;34.08;16.02;;;2.00;84.10;;;;;;5151810;27;20026;-58
2022/12/11 15:55:01;;;;;;;43.20;17.80;;;2.00;83.60;;;;;;5151572;27;20068;-59
2022/12/11 15:57:27;;;;;;;38.83;16.27;;;2.10;83.10;;;;;;5133236;27;20114;-58
2022/12/11 15:59:53;;;;;;;33.38;15.95;;;1.90;83.10;;;;;;5151392;27;20066;-57
2022/12/11 16:02:23;;;;;;;32.65;15.82;;;1.90;83.10;;;;;;5150885;27;20039;-57
2022/12/11 16:04:49;;;;;;;32.53;17.17;;;1.80;83.40;;;;;;5132589;27;20031;-59
2022/12/11 16:07:18;;;;;;;37.15;18.08;;;1.90;83.30;;;;;;5151158;27;20041;-59
2022/12/11 16:09:44;;;;;;;39.97;16.73;;;2.00;83.20;;;;;;5132759;27;20365;-60
2022/12/11 16:12:10;;;;;;;37.78;17.25;;;2.10;82.80;;;;;;5132418;27;20026;-57
2022/12/11 16:14:39;;;;;;;31.55;16.95;;;1.90;82.90;;;;;;5136227;27;20378;-59
2022/12/11 16:17:06;;;;;;;37.78;17.02;;;1.90;83.20;;;;;;5118515;27;20079;-61
2022/12/11 16:19:32;;;;;;;34.03;15.95;;;1.80;82.80;;;;;;5136855;27;20023;-57
2022/12/11 16:21:58;;;;;;;32.88;17.13;;;1.80;82.60;;;;;;5118352;27;20034;-61
2022/12/11 16:24:23;;;;;;;40.28;19.58;;;1.80;83.10;;;;;;5136818;27;20019;-60
2022/12/11 16:26:49;;;;;;;34.47;16.77;;;2.00;82.50;;;;;;5136824;27;20047;-59
2022/12/11 16:29:14;;;;;;;38.70;16.60;;;1.90;82.30;;;;;;5118340;27;20115;-61
2022/12/11 16:31:43;;;;;;;38.63;18.20;;;2.00;82.80;;;;;;5138282;27;20045;-59
2022/12/11 16:34:09;;;;;;;38.05;17.63;;;1.90;82.90;;;;;;5138415;27;20466;-60
2022/12/11 16:36:35;;;;;;;35.50;17.65;;;2.10;82.80;;;;;;5118288;27;20024;-59
2022/12/11 16:39:00;;;;;;;44.20;20.60;;;1.90;82.70;;;;;;5136472;27;20049;-60
2022/12/11 16:41:26;;;;;;;41.63;17.38;;;1.90;83.10;;;;;;5136296;27;20027;-56
2022/12/11 16:43:53;;;;;;;36.15;17.42;;;1.80;83.30;;;;;;5117984;27;20027;-60
2022/12/11 16:46:20;;;;;;;42.17;18.08;;;1.80;83.20;;;;;;5136670;27;20483;-60
2022/12/11 16:48:46;;;;;;;38.53;18.40;;;2.00;82.60;;;;;;5136499;27;20057;-58
2022/12/11 16:51:12;;;;;;;34.53;15.32;;;1.80;82.60;;;;;;5136105;27;20470;-56
2022/12/11 16:53:37;;;;;;;43.05;18.20;;;1.70;83.10;;;;;;5136187;27;20132;-60
2022/12/11 16:56:07;;;;;;;38.47;18.45;;;1.80;83.70;;;;;;5117743;27;20067;-58
2022/12/11 16:58:33;;;;;;;37.70;16.70;;;1.80;83.80;;;;;;5136328;27;20060;-59
2022/12/11 17:01:01;;;;;;;42.35;19.98;;;1.80;83.60;;;;;;5135975;27;20741;-58
2022/12/11 17:03:33;;;;;;;40.83;18.42;;;1.70;84.10;;;;;;5136409;27;20494;-57
2022/12/11 17:05:58;;;;;;;43.50;19.58;;;1.60;84.60;;;;;;5136248;27;20427;-60
2022/12/11 17:08:24;;;;;;;39.90;18.58;;;1.80;84.70;;;;;;5136456;27;20034;-55
2022/12/11 17:10:51;;;;;;;44.95;20.92;;;1.70;84.60;;;;;;5136060;27;20031;-53
2022/12/11 17:13:17;;;;;;;45.95;20.48;;;1.60;84.90;;;;;;5135796;27;20027;-59
2022/12/11 17:15:43;;;;;;;43.30;21.30;;;1.70;85.00;;;;;;5135692;27;20023;-60
2022/12/11 17:18:09;;;;;;;48.78;20.55;;;1.80;85.10;;;;;;5135995;27;20408;-59
2022/12/11 17:20:40;;;;;;;47.60;22.05;;;1.80;85.20;;;;;;5135902;27;20020;-58
2022/12/11 17:23:08;;;;;;;49.40;20.73;;;1.80;85.30;;;;;;5136162;27;20051;-57
2022/12/11 17:25:34;;;;;;;40.15;21.23;;;1.80;85.60;;;;;;5134728;27;20524;-59
2022/12/11 17:27:59;;;;;;;52.45;22.85;;;1.90;85.00;;;;;;5135948;27;20011;-59
2022/12/11 17:30:25;;;;;;;48.90;22.55;;;1.90;85.10;;;;;;5135672;27;20035;-58
2022/12/11 17:32:51;;;;;;;55.08;24.02;;;1.90;84.80;;;;;;5117281;27;20027;-60
2022/12/11 17:35:17;;;;;;;54.03;24.67;;;1.80;85.00;;;;;;5117432;27;20070;-55
2022/12/11 17:37:42;;;;;;;48.83;23.35;;;1.70;85.40;;;;;;5116851;27;20026;-58
2022/12/11 17:40:08;;;;;;;49.30;23.45;;;1.60;85.90;;;;;;5135014;27;20030;-61
2022/12/11 17:42:34;;;;;;;43.45;21.50;;;1.60;86.10;;;;;;5135600;27;20405;-58
2022/12/11 17:45:00;;;;;;;50.67;22.77;;;1.70;86.10;;;;;;5135553;27;20016;-54
2022/12/11 17:47:26;;;;;;;53.75;24.20;;;1.70;86.00;;;;;;5135340;27;20499;-55
2022/12/11 17:49:52;;;;;;;60.22;26.35;;;1.70;86.10;;;;;;5135715;27;20106;-57
2022/12/11 17:52:17;;;;;;;55.55;24.00;;;1.70;86.10;;;;;;5135760;27;20076;-56
2022/12/11 17:54:43;;;;;;;55.53;23.95;;;2.00;86.00;;;;;;5116649;27;20382;-59
2022/12/11 17:57:09;;;;;;;58.63;24.30;;;1.90;85.30;;;;;;5135100;27;20034;-57
2022/12/11 17:59:34;;;;;;;56.35;24.63;;;1.80;85.70;;;;;;5135053;27;20023;-60
2022/12/11 18:02:00;;;;;;;56.72;27.08;;;2.00;85.80;;;;;;5134957;27;20420;-60
2022/12/11 18:04:26;;;;;;;58.63;27.75;;;2.00;85.40;;;;;;5135537;27;20034;-59
2022/12/11 18:06:51;;;;;;;60.00;26.23;;;2.00;85.50;;;;;;5116449;27;20068;-57
2022/12/11 18:09:17;;;;;;;54.90;24.58;;;2.00;85.70;;;;;;5134937;27;20527;-60
2022/12/11 18:11:43;;;;;;;52.95;25.60;;;2.00;85.60;;;;;;5134881;27;20102;-56
2022/12/11 18:14:08;;;;;;;65.25;26.35;;;2.10;85.40;;;;;;5134746;27;20027;-60
2022/12/11 18:16:36;;;;;;;54.28;25.75;;;1.90;85.20;;;;;;5134437;27;20102;-60
2022/12/11 18:19:04;;;;;;;57.08;25.40;;;1.90;85.20;;;;;;5116141;27;20024;-54
2022/12/11 18:21:33;;;;;;;50.88;23.40;;;1.90;85.40;;;;;;5135233;27;20110;-58
2022/12/11 18:23:59;;;;;;;49.35;22.48;;;1.90;85.00;;;;;;5135021;27;20106;-58
2022/12/11 18:26:26;;;;;;;46.75;22.55;;;1.80;85.00;;;;;;5134962;27;20026;-61
2022/12/11 18:28:52;;;;;;;53.55;27.20;;;1.80;85.50;;;;;;5134630;27;20374;-58
2022/12/11 18:31:19;;;;;;;53.28;24.45;;;2.00;85.70;;;;;;5134903;27;20031;-60
2022/12/11 18:33:46;;;;;;;46.53;23.38;;;1.90;84.70;;;;;;5134980;27;20023;-58
2022/12/11 18:36:13;;;;;;;52.97;24.70;;;2.10;84.50;;;;;;5134621;27;20023;-56
2022/12/11 18:38:40;;;;;;;49.33;22.67;;;1.90;84.70;;;;;;5134540;27;20096;-58
2022/12/11 18:41:08;;;;;;;57.13;26.10;;;1.80;84.80;;;;;;5134460;27;20061;-59
2022/12/11 18:43:34;;;;;;;44.70;21.38;;;2.00;84.50;;;;;;5134555;27;20024;-58
2022/12/11 18:46:04;;;;;;;48.53;23.17;;;2.00;84.00;;;;;;5116096;27;20019;-60
2022/12/11 18:48:29;;;;;;;54.60;24.25;;;1.80;84.20;;;;;;5134950;27;20366;-58
2022/12/11 18:50:55;;;;;;;55.85;26.65;;;1.80;83.90;;;;;;5134538;27;20027;-58
2022/12/11 18:53:20;;;;;;;58.25;25.75;;;1.70;84.80;;;;;;5134367;27;20027;-57
2022/12/11 18:55:48;;;;;;;55.95;26.13;;;1.90;84.90;;;;;;5134091;27;20535;-58
2022/12/11 18:58:16;;;;;;;53.58;25.55;;;2.10;84.60;;;;;;5134030;27;20034;-55
2022/12/11 19:00:42;;;;;;;61.58;26.77;;;2.00;84.40;;;;;;5133802;28;20023;-57
2022/12/11 19:03:09;;;;;;;60.58;25.10;;;1.80;84.70;;;;;;5134014;28;20490;-58
2022/12/11 19:05:36;;;;;;;65.32;29.63;;;1.70;85.40;;;;;;5134374;28;20470;-58
2022/12/11 19:08:02;;;;;;;66.45;27.83;;;1.50;85.70;;;;;;5133905;28;20022;-59
2022/12/11 19:10:28;;;;;;;58.88;26.35;;;1.50;86.00;;;;;;5133850;28;20061;-57
2022/12/11 19:12:54;;;;;;;57.60;27.27;;;1.40;86.10;;;;;;5114856;28;20498;-61
2022/12/11 19:15:20;;;;;;;57.30;26.00;;;1.50;86.30;;;;;;5133568;28;20087;-58
2022/12/11 19:17:46;;;;;;;52.92;24.70;;;1.60;86.30;;;;;;5134281;28;20161;-58
2022/12/11 19:20:12;;;;;;;64.00;28.35;;;1.70;85.90;;;;;;5134809;28;20082;-59
2022/12/11 19:22:38;;;;;;;59.85;25.23;;;1.70;85.70;;;;;;5134276;28;20063;-57
2022/12/11 19:25:05;;;;;;;54.13;25.15;;;1.70;85.50;;;;;;5115539;28;20054;-59
2022/12/11 19:27:31;;;;;;;62.15;26.08;;;1.70;85.40;;;;;;5134112;28;20015;-55
2022/12/11 19:29:58;;;;;;;51.70;24.85;;;1.80;85.30;;;;;;5133882;28;20042;-59
2022/12/11 19:32:24;;;;;;;54.25;24.80;;;1.90;85.10;;;;;;5134155;28;20025;-59
2022/12/11 19:34:54;;;;;;;58.75;26.35;;;1.90;85.20;;;;;;5115320;28;20044;-58
2022/12/11 19:37:21;;;;;;;55.15;25.83;;;1.90;84.70;;;;;;5115448;28;20046;-60
2022/12/11 19:39:46;;;;;;;55.40;25.50;;;2.00;84.50;;;;;;5115623;28;20050;-57
2022/12/11 19:42:12;;;;;;;55.92;25.67;;;2.10;84.30;;;;;;5134582;28;20462;-59
2022/12/11 19:44:39;;;;;;;46.83;23.20;;;2.00;83.70;;;;;;5134693;28;20034;-60
2022/12/11 19:47:05;;;;;;;47.00;21.20;;;1.90;83.90;;;;;;5133971;27;20463;-58
2022/12/11 19:49:31;;;;;;;55.75;25.75;;;1.90;83.90;;;;;;5136694;27;20072;-57
2022/12/11 19:51:56;;;;;;;49.00;22.52;;;1.80;84.00;;;;;;5119045;27;20027;-60
2022/12/11 19:54:23;;;;;;;48.17;24.30;;;1.90;84.10;;;;;;5137672;27;20023;-57
2022/12/11 19:56:49;;;;;;;46.65;23.00;;;2.00;83.20;;;;;;5137663;27;20075;-57
2022/12/11 19:59:16;;;;;;;45.15;21.95;;;2.10;82.60;;;;;;5137688;27;20015;-57
2022/12/11 20:01:46;;;;;;;46.63;21.20;;;1.90;82.30;;;;;;5137152;27;20493;-58
2022/12/11 20:04:16;;;;;;;48.90;22.85;;;1.80;82.90;;;;;;5118901;27;20110;-57
2022/12/11 20:06:44;;;;;;;61.50;26.55;;;1.90;82.90;;;;;;5137201;27;20016;-60
2022/12/11 20:09:11;;;;;;;56.63;25.80;;;1.90;82.80;;;;;;5137455;27;20382;-57
2022/12/11 20:11:39;;;;;;;56.55;25.85;;;2.10;83.10;;;;;;5118641;27;20367;-57
2022/12/11 20:14:05;;;;;;;63.13;27.00;;;1.90;83.30;;;;;;5118589;27;20023;-61
2022/12/11 20:16:31;;;;;;;62.45;27.17;;;1.90;83.90;;;;;;5137243;27;20023;-59
2022/12/11 20:18:56;;;;;;;70.75;28.73;;;2.00;83.80;;;;;;5137182;27;20015;-60
2022/12/11 20:21:22;;;;;;;64.25;31.00;;;1.80;84.20;;;;;;5137504;27;20102;-56
2022/12/11 20:23:48;;;;;;;71.95;30.30;;;1.70;85.10;;;;;;5137393;27;20030;-58
2022/12/11 20:26:17;;;;;;;68.15;28.02;;;1.60;85.60;;;;;;5136984;27;20015;-61
2022/12/11 20:28:46;;;;;;;66.72;29.08;;;1.70;85.80;;;;;;5118611;27;20019;-61
2022/12/11 20:31:15;;;;;;;62.08;28.60;;;1.80;85.70;;;;;;5118680;27;20498;-62
2022/12/11 20:33:41;;;;;;;55.85;25.90;;;1.80;85.50;;;;;;5137231;27;20382;-60
2022/12/11 20:36:12;;;;;;;55.15;25.52;;;1.70;85.30;;;;;;5136716;27;20063;-58
2022/12/11 20:38:39;;;;;;;63.13;28.15;;;1.80;85.40;;;;;;5118287;27;20031;-58
2022/12/11 20:41:07;;;;;;;53.40;25.08;;;1.90;85.10;;;;;;5136973;27;20042;-58
2022/12/11 20:43:32;;;;;;;57.42;27.40;;;1.80;85.00;;;;;;5137343;27;20032;-55
2022/12/11 20:45:58;;;;;;;58.75;26.42;;;1.60;84.80;;;;;;5137100;27;20023;-59
2022/12/11 20:48:25;;;;;;;50.13;23.98;;;1.60;85.70;;;;;;5136791;27;20015;-60
2022/12/11 20:50:50;;;;;;;53.88;25.67;;;1.60;85.40;;;;;;5118220;27;20478;-59
2022/12/11 20:53:16;;;;;;;53.67;24.52;;;1.80;85.30;;;;;;5136627;27;20038;-59
2022/12/11 20:55:42;;;;;;;49.42;24.23;;;1.80;85.10;;;;;;5136914;27;20026;-61
2022/12/11 20:58:08;;;;;;;58.55;26.23;;;1.80;85.10;;;;;;5136582;27;20023;-58
